createdAt,value
2016-10-10T00:00:13.084Z,20.35
2016-10-10T00:01:25.509Z,20.32
2016-10-10T00:02:38.496Z,20.34
2016-10-10T00:03:51.441Z,20.37
2016-10-10T00:05:03.902Z,20.34
2016-10-10T00:06:17.360Z,20.37
2016-10-10T00:07:30.324Z,20.34
2016-10-10T00:08:43.261Z,20.35
2016-10-10T00:09:55.165Z,20.41
2016-10-10T00:11:08.802Z,20.41
2016-10-10T00:12:21.776Z,20.38
2016-10-10T00:13:35.289Z,20.29
2016-10-10T00:14:48.781Z,20.32
2016-10-10T00:16:01.802Z,20.37
2016-10-10T00:17:15.428Z,20.29
2016-10-10T00:18:27.849Z,20.37
2016-10-10T00:19:40.275Z,20.4
2016-10-10T00:20:52.758Z,20.32
2016-10-10T00:22:06.516Z,20.38
2016-10-10T00:23:19.996Z,20.3
2016-10-10T00:24:32.483Z,20.34
2016-10-10T00:25:45.463Z,20.44
2016-10-10T00:26:58.481Z,20.3
2016-10-10T00:28:10.535Z,20.38
2016-10-10T00:29:23.550Z,20.46
2016-10-10T00:30:35.939Z,20.42
2016-10-10T00:31:49.478Z,20.46
2016-10-10T00:33:03.221Z,20.29
2016-10-10T00:34:15.221Z,20.29
2016-10-10T00:35:28.696Z,20.27
2016-10-10T00:36:41.637Z,20.37
2016-10-10T00:37:54.136Z,20.29
2016-10-10T00:39:06.020Z,20.35
2016-10-10T00:40:18.931Z,20.32
2016-10-10T00:41:32.460Z,20.26
2016-10-10T00:42:45.975Z,20.26
2016-10-10T00:43:59.665Z,20.3
2016-10-10T00:45:12.593Z,20.29
2016-10-10T00:46:26.140Z,20.25
2016-10-10T00:47:39.088Z,20.22
2016-10-10T00:48:51.032Z,20.16
2016-10-10T00:50:03.440Z,20.11
2016-10-10T00:51:17.177Z,20.12
2016-10-10T00:52:30.665Z,20.11
2016-10-10T00:53:43.634Z,20.16
2016-10-10T00:54:56.560Z,20.11
2016-10-10T00:56:10.061Z,20.15
2016-10-10T00:57:23.573Z,20.01
2016-10-10T00:58:37.103Z,20.08
2016-10-10T00:59:49.586Z,20.1
2016-10-10T01:01:02.896Z,20.08
2016-10-10T01:02:15.349Z,20.07
2016-10-10T01:03:27.754Z,20.05
2016-10-10T01:04:40.701Z,19.97
2016-10-10T01:05:54.335Z,20
2016-10-10T01:07:07.369Z,19.92
2016-10-10T01:08:20.916Z,19.89
2016-10-10T01:09:34.513Z,19.83
2016-10-10T01:10:47.463Z,19.83
2016-10-10T01:12:00.502Z,19.86
2016-10-10T01:13:12.950Z,19.83
2016-10-10T01:14:24.353Z,19.71
2016-10-10T01:15:37.282Z,19.79
2016-10-10T01:16:50.471Z,19.75
2016-10-10T01:18:03.443Z,19.72
2016-10-10T01:19:15.801Z,19.74
2016-10-10T01:20:28.277Z,19.74
2016-10-10T01:21:41.805Z,19.72
2016-10-10T01:22:55.266Z,19.75
2016-10-10T01:24:07.628Z,19.8
2016-10-10T01:25:20.600Z,19.7
2016-10-10T01:26:33.731Z,19.72
2016-10-10T01:27:46.378Z,19.67
2016-10-10T01:28:59.508Z,19.72
2016-10-10T01:30:11.578Z,19.78
2016-10-10T01:31:25.027Z,19.7
2016-10-10T01:32:38.566Z,19.7
2016-10-10T01:33:51.693Z,19.72
2016-10-10T01:35:04.743Z,19.75
2016-10-10T01:36:17.325Z,19.75
2016-10-10T01:37:29.189Z,19.7
2016-10-10T01:38:42.999Z,19.74
2016-10-10T01:39:56.006Z,19.74
2016-10-10T01:41:07.857Z,19.8
2016-10-10T01:42:21.382Z,19.75
2016-10-10T01:43:34.403Z,19.72
2016-10-10T01:44:48.072Z,19.75
2016-10-10T01:46:01.085Z,19.7
2016-10-10T01:47:14.050Z,19.68
2016-10-10T01:48:27.624Z,19.72
2016-10-10T01:49:40.710Z,19.68
2016-10-10T01:50:53.688Z,19.74
2016-10-10T01:52:07.194Z,19.78
2016-10-10T01:53:20.133Z,19.74
2016-10-10T01:54:33.639Z,19.63
2016-10-10T01:55:46.662Z,19.8
2016-10-10T01:56:59.557Z,19.65
2016-10-10T01:58:13.156Z,19.8
2016-10-10T01:59:26.159Z,19.7
2016-10-10T02:00:39.365Z,19.74
2016-10-10T02:01:51.400Z,19.68
2016-10-10T02:03:04.468Z,19.64
2016-10-10T02:04:16.970Z,19.63
2016-10-10T02:05:29.440Z,19.63
2016-10-10T02:06:42.936Z,19.6
2016-10-10T02:07:55.942Z,19.64
2016-10-10T02:09:08.350Z,19.57
2016-10-10T02:10:21.318Z,19.56
2016-10-10T02:11:33.885Z,19.64
2016-10-10T02:12:46.938Z,19.55
2016-10-10T02:14:00.461Z,19.55
2016-10-10T02:15:13.359Z,19.55
2016-10-10T02:16:25.803Z,19.56
2016-10-10T02:17:39.278Z,19.56
2016-10-10T02:18:51.751Z,19.53
2016-10-10T02:20:04.478Z,19.46
2016-10-10T02:21:18.282Z,19.55
2016-10-10T02:22:30.823Z,19.49
2016-10-10T02:23:44.325Z,19.46
2016-10-10T02:24:57.920Z,19.4
2016-10-10T02:26:11.391Z,19.5
2016-10-10T02:27:23.867Z,19.45
2016-10-10T02:28:37.519Z,19.38
2016-10-10T02:29:51.020Z,19.42
2016-10-10T02:31:04.535Z,19.5
2016-10-10T02:32:16.956Z,19.53
2016-10-10T02:33:30.567Z,19.46
2016-10-10T02:34:43.523Z,19.49
2016-10-10T02:35:57.049Z,19.55
2016-10-10T02:37:10.570Z,19.52
2016-10-10T02:38:23.083Z,19.52
2016-10-10T02:39:36.079Z,19.49
2016-10-10T02:40:48.586Z,19.52
2016-10-10T02:42:01.617Z,19.47
2016-10-10T02:43:14.073Z,19.55
2016-10-10T02:44:26.636Z,19.56
2016-10-10T02:45:39.012Z,19.53
2016-10-10T02:46:52.543Z,19.47
2016-10-10T02:48:06.023Z,19.45
2016-10-10T02:49:19.514Z,19.53
2016-10-10T02:50:31.497Z,19.45
2016-10-10T02:51:45.126Z,19.43
2016-10-10T02:52:58.119Z,19.55
2016-10-10T02:54:11.237Z,19.47
2016-10-10T02:55:24.874Z,19.49
2016-10-10T02:56:37.949Z,19.4
2016-10-10T02:57:50.976Z,19.49
2016-10-10T02:59:03.987Z,19.49
2016-10-10T03:00:17.141Z,19.52
2016-10-10T03:01:29.146Z,19.46
2016-10-10T03:02:42.696Z,19.45
2016-10-10T03:03:56.162Z,19.43
2016-10-10T03:05:09.178Z,19.45
2016-10-10T03:06:22.298Z,19.46
2016-10-10T03:07:35.778Z,19.34
2016-10-10T03:08:49.257Z,19.45
2016-10-10T03:10:02.212Z,19.47
2016-10-10T03:11:15.164Z,19.35
2016-10-10T03:12:27.629Z,19.49
2016-10-10T03:13:41.079Z,19.46
2016-10-10T03:14:54.599Z,19.42
2016-10-10T03:16:07.518Z,19.34
2016-10-10T03:17:20.286Z,19.46
2016-10-10T03:18:33.804Z,19.45
2016-10-10T03:19:45.782Z,19.34
2016-10-10T03:20:58.229Z,19.37
2016-10-10T03:22:11.761Z,19.38
2016-10-10T03:23:24.758Z,19.42
2016-10-10T03:24:38.305Z,19.49
2016-10-10T03:25:51.827Z,19.46
2016-10-10T03:27:04.286Z,19.49
2016-10-10T03:28:16.764Z,19.5
2016-10-10T03:29:29.175Z,19.45
2016-10-10T03:30:42.180Z,19.53
2016-10-10T03:31:55.589Z,19.55
2016-10-10T03:33:07.988Z,19.43
2016-10-10T03:34:20.358Z,19.45
2016-10-10T03:35:32.779Z,19.38
2016-10-10T03:36:45.703Z,19.4
2016-10-10T03:37:59.230Z,19.42
2016-10-10T03:39:12.884Z,19.32
2016-10-10T03:40:25.855Z,19.38
2016-10-10T03:41:38.280Z,19.35
2016-10-10T03:42:51.290Z,19.37
2016-10-10T03:44:04.223Z,19.31
2016-10-10T03:45:16.726Z,19.38
2016-10-10T03:46:30.330Z,19.37
2016-10-10T03:47:43.312Z,19.37
2016-10-10T03:48:55.718Z,19.31
2016-10-10T03:50:08.910Z,19.24
2016-10-10T03:51:21.823Z,19.25
2016-10-10T03:52:34.816Z,19.3
2016-10-10T03:53:47.791Z,19.32
2016-10-10T03:55:01.259Z,19.3
2016-10-10T03:56:14.224Z,19.23
2016-10-10T03:57:27.716Z,19.23
2016-10-10T03:58:40.738Z,19.28
2016-10-10T03:59:53.672Z,19.24
2016-10-10T04:01:06.770Z,19.34
2016-10-10T04:02:20.306Z,19.34
2016-10-10T04:03:33.225Z,19.35
2016-10-10T04:04:46.142Z,19.32
2016-10-10T04:05:58.037Z,19.34
2016-10-10T04:07:10.518Z,19.32
2016-10-10T04:08:23.512Z,19.34
2016-10-10T04:09:36.479Z,19.23
2016-10-10T04:10:49.502Z,19.32
2016-10-10T04:12:02.608Z,19.25
2016-10-10T04:13:15.159Z,19.23
2016-10-10T04:14:28.083Z,19.23
2016-10-10T04:15:41.059Z,19.23
2016-10-10T04:16:54.759Z,19.23
2016-10-10T04:18:06.762Z,19.15
2016-10-10T04:19:19.779Z,19.13
2016-10-10T04:20:32.738Z,19.13
2016-10-10T04:21:44.645Z,19.19
2016-10-10T04:22:57.808Z,19.12
2016-10-10T04:24:10.792Z,19.17
2016-10-10T04:25:23.787Z,19.13
2016-10-10T04:26:36.781Z,19.17
2016-10-10T04:27:49.302Z,19.17
2016-10-10T04:29:02.812Z,19.12
2016-10-10T04:30:15.768Z,19.07
2016-10-10T04:31:29.349Z,19.02
2016-10-10T04:32:42.330Z,18.99
2016-10-10T04:33:55.429Z,19.05
2016-10-10T04:35:07.800Z,18.97
2016-10-10T04:36:20.226Z,19.05
2016-10-10T04:37:32.088Z,19.05
2016-10-10T04:38:45.081Z,19.02
2016-10-10T04:39:57.521Z,18.96
2016-10-10T04:41:10.523Z,18.99
2016-10-10T04:42:24.031Z,18.97
2016-10-10T04:43:37.105Z,18.99
2016-10-10T04:44:49.648Z,19
2016-10-10T04:46:02.067Z,19.05
2016-10-10T04:47:14.544Z,18.96
2016-10-10T04:48:27.500Z,18.91
2016-10-10T04:49:40.539Z,18.89
2016-10-10T04:50:53.730Z,18.91
2016-10-10T04:52:06.802Z,19.05
2016-10-10T04:53:20.295Z,18.87
2016-10-10T04:54:33.297Z,18.96
2016-10-10T04:55:46.396Z,18.99
2016-10-10T04:56:59.858Z,18.96
2016-10-10T04:58:12.766Z,19.05
2016-10-10T04:59:25.777Z,19.06
2016-10-10T05:00:39.007Z,18.99
2016-10-10T05:01:51.651Z,18.9
2016-10-10T05:03:05.169Z,18.9
2016-10-10T05:04:17.666Z,19
2016-10-10T05:05:30.098Z,18.91
2016-10-10T05:06:42.862Z,18.94
2016-10-10T05:07:54.797Z,18.87
2016-10-10T05:09:07.733Z,18.9
2016-10-10T05:10:20.697Z,18.94
2016-10-10T05:11:34.183Z,18.81
2016-10-10T05:12:47.175Z,18.89
2016-10-10T05:14:00.659Z,18.81
2016-10-10T05:15:13.607Z,18.87
2016-10-10T05:16:26.542Z,18.84
2016-10-10T05:17:40.167Z,18.86
2016-10-10T05:18:52.083Z,18.79
2016-10-10T05:20:03.988Z,18.76
2016-10-10T05:21:16.397Z,18.76
2016-10-10T05:22:28.844Z,18.81
2016-10-10T05:23:41.830Z,18.87
2016-10-10T05:24:54.279Z,18.84
2016-10-10T05:26:07.282Z,18.79
2016-10-10T05:27:20.227Z,18.74
2016-10-10T05:28:33.285Z,18.81
2016-10-10T05:29:46.446Z,18.74
2016-10-10T05:30:59.866Z,18.74
2016-10-10T05:32:13.367Z,18.69
2016-10-10T05:33:26.863Z,18.69
2016-10-10T05:34:39.834Z,18.74
2016-10-10T05:35:53.279Z,18.71
2016-10-10T05:37:06.271Z,18.66
2016-10-10T05:38:19.747Z,18.69
2016-10-10T05:39:33.355Z,18.66
2016-10-10T05:40:46.907Z,18.68
2016-10-10T05:41:59.527Z,18.75
2016-10-10T05:43:13.028Z,18.69
2016-10-10T05:44:26.564Z,18.6
2016-10-10T05:45:38.962Z,18.68
2016-10-10T05:46:52.451Z,18.65
2016-10-10T05:48:04.904Z,18.66
2016-10-10T05:49:17.979Z,18.51
2016-10-10T05:50:29.978Z,18.57
2016-10-10T05:51:42.919Z,18.63
2016-10-10T05:52:55.311Z,18.5
2016-10-10T05:54:07.714Z,18.59
2016-10-10T05:55:19.735Z,18.65
2016-10-10T05:56:33.328Z,18.53
2016-10-10T05:57:45.810Z,18.54
2016-10-10T05:58:58.224Z,18.6
2016-10-10T06:00:10.603Z,18.51
2016-10-10T06:01:23.719Z,18.63
2016-10-10T06:02:36.162Z,18.6
2016-10-10T06:03:49.128Z,18.6
2016-10-10T06:05:02.574Z,18.6
2016-10-10T06:06:15.517Z,18.6
2016-10-10T06:07:28.836Z,18.66
2016-10-10T06:08:41.775Z,18.61
2016-10-10T06:09:54.719Z,18.61
2016-10-10T06:11:07.682Z,18.56
2016-10-10T06:12:21.257Z,18.59
2016-10-10T06:13:34.284Z,18.57
2016-10-10T06:14:47.496Z,18.6
2016-10-10T06:16:00.469Z,18.6
2016-10-10T06:17:12.864Z,18.53
2016-10-10T06:18:26.046Z,18.6
2016-10-10T06:19:39.259Z,18.57
2016-10-10T06:20:52.784Z,18.53
2016-10-10T06:22:05.221Z,18.49
2016-10-10T06:23:18.280Z,18.6
2016-10-10T06:24:29.687Z,18.63
2016-10-10T06:25:42.647Z,18.6
2016-10-10T06:26:54.548Z,18.6
2016-10-10T06:28:08.213Z,18.54
2016-10-10T06:29:21.120Z,18.61
2016-10-10T06:30:33.607Z,18.6
2016-10-10T06:31:46.518Z,18.63
2016-10-10T06:33:00.084Z,18.6
2016-10-10T06:34:13.628Z,18.63
2016-10-10T06:35:26.569Z,18.63
2016-10-10T06:36:39.497Z,18.6
2016-10-10T06:37:52.488Z,18.68
2016-10-10T06:39:04.951Z,18.56
2016-10-10T06:40:18.493Z,18.63
2016-10-10T06:41:31.987Z,18.61
2016-10-10T06:42:44.969Z,18.61
2016-10-10T06:43:57.931Z,18.68
2016-10-10T06:45:10.975Z,18.65
2016-10-10T06:46:23.401Z,18.63
2016-10-10T06:47:36.775Z,18.65
2016-10-10T06:48:50.291Z,18.61
2016-10-10T06:50:02.748Z,18.59
2016-10-10T06:51:15.202Z,18.65
2016-10-10T06:52:28.202Z,18.6
2016-10-10T06:53:41.686Z,18.65
2016-10-10T06:54:54.111Z,18.61
2016-10-10T06:56:07.739Z,18.56
2016-10-10T06:57:20.741Z,18.57
2016-10-10T06:58:33.734Z,18.68
2016-10-10T06:59:46.741Z,18.63
2016-10-10T07:00:59.173Z,18.63
2016-10-10T07:02:11.669Z,18.56
2016-10-10T07:03:23.526Z,18.59
2016-10-10T07:04:36.529Z,18.56
2016-10-10T07:05:49.503Z,18.59
2016-10-10T07:07:02.524Z,18.65
2016-10-10T07:08:15.939Z,18.53
2016-10-10T07:09:28.948Z,18.61
2016-10-10T07:10:41.335Z,18.5
2016-10-10T07:11:54.284Z,18.57
2016-10-10T07:13:06.722Z,18.56
2016-10-10T07:14:19.733Z,18.61
2016-10-10T07:15:32.664Z,18.54
2016-10-10T07:16:45.651Z,18.54
2016-10-10T07:17:58.150Z,18.61
2016-10-10T07:19:11.123Z,18.56
2016-10-10T07:20:24.083Z,18.61
2016-10-10T07:21:37.468Z,18.6
2016-10-10T07:22:50.927Z,18.5
2016-10-10T07:24:03.929Z,18.51
2016-10-10T07:25:17.356Z,18.6
2016-10-10T07:26:30.799Z,18.53
2016-10-10T07:27:42.660Z,18.51
2016-10-10T07:28:55.209Z,18.5
2016-10-10T07:30:08.141Z,18.56
2016-10-10T07:31:21.757Z,18.5
2016-10-10T07:32:35.198Z,18.5
2016-10-10T07:33:47.697Z,18.49
2016-10-10T07:35:00.726Z,18.45
2016-10-10T07:36:14.220Z,18.5
2016-10-10T07:37:27.660Z,18.5
2016-10-10T07:38:39.584Z,18.53
2016-10-10T07:39:51.084Z,18.56
2016-10-10T07:41:04.041Z,18.47
2016-10-10T07:42:17.110Z,18.47
2016-10-10T07:43:30.120Z,18.53
2016-10-10T07:44:43.098Z,18.53
2016-10-10T07:45:55.450Z,18.53
2016-10-10T07:47:08.394Z,18.41
2016-10-10T07:48:20.311Z,18.36
2016-10-10T07:49:33.224Z,18.35
2016-10-10T07:50:46.438Z,18.42
2016-10-10T07:51:59.435Z,18.39
2016-10-10T07:53:11.871Z,18.34
2016-10-10T07:54:25.570Z,18.41
2016-10-10T07:55:39.046Z,18.41
2016-10-10T07:56:50.545Z,18.34
2016-10-10T07:58:03.973Z,18.36
2016-10-10T07:59:16.975Z,18.42
2016-10-10T08:00:29.392Z,18.35
2016-10-10T08:01:42.436Z,18.41
2016-10-10T08:02:55.365Z,18.41
2016-10-10T08:04:08.315Z,18.31
2016-10-10T08:05:20.746Z,18.39
2016-10-10T08:06:33.659Z,18.24
2016-10-10T08:07:47.105Z,18.27
2016-10-10T08:09:00.587Z,18.23
2016-10-10T08:10:13.692Z,18.26
2016-10-10T08:11:26.695Z,18.27
2016-10-10T08:12:38.147Z,18.31
2016-10-10T08:13:50.034Z,18.21
2016-10-10T08:15:03.002Z,18.32
2016-10-10T08:16:16.503Z,18.32
2016-10-10T08:17:29.439Z,18.29
2016-10-10T08:18:42.948Z,18.31
2016-10-10T08:19:55.916Z,18.32
2016-10-10T08:21:09.618Z,18.29
2016-10-10T08:22:22.112Z,18.26
2016-10-10T08:23:34.154Z,18.27
2016-10-10T08:24:47.082Z,18.27
2016-10-10T08:25:59.511Z,18.24
2016-10-10T08:27:12.992Z,18.24
2016-10-10T08:28:26.443Z,18.2
2016-10-10T08:29:39.494Z,18.17
2016-10-10T08:30:52.474Z,18.23
2016-10-10T08:32:03.892Z,18.13
2016-10-10T08:33:16.859Z,18.11
2016-10-10T08:34:30.465Z,18.17
2016-10-10T08:35:43.933Z,18.16
2016-10-10T08:36:57.470Z,18.08
2016-10-10T08:38:10.470Z,18.08
2016-10-10T08:39:23.976Z,18.01
2016-10-10T08:40:36.984Z,18.02
2016-10-10T08:41:49.931Z,18.01
2016-10-10T08:43:03.347Z,18.01
2016-10-10T08:44:15.244Z,17.87
2016-10-10T08:45:28.806Z,17.9
2016-10-10T08:46:41.438Z,17.86
2016-10-10T08:47:53.953Z,17.81
2016-10-10T08:49:06.938Z,17.84
2016-10-10T08:50:20.378Z,17.87
2016-10-10T08:51:32.301Z,17.84
2016-10-10T08:52:45.797Z,17.84
2016-10-10T08:53:58.723Z,17.76
2016-10-10T08:55:11.752Z,17.65
2016-10-10T08:56:24.980Z,17.71
2016-10-10T08:57:37.967Z,17.77
2016-10-10T08:58:50.579Z,17.71
2016-10-10T09:00:03.589Z,17.77
2016-10-10T09:01:16.457Z,17.66
2016-10-10T09:02:28.961Z,17.76
2016-10-10T09:03:41.937Z,17.76
2016-10-10T09:04:54.321Z,17.69
2016-10-10T09:06:07.804Z,17.69
2016-10-10T09:07:21.350Z,17.74
2016-10-10T09:08:34.872Z,17.65
2016-10-10T09:09:47.804Z,17.71
2016-10-10T09:11:00.720Z,17.76
2016-10-10T09:12:13.136Z,17.66
2016-10-10T09:13:26.018Z,17.74
2016-10-10T09:14:38.918Z,17.79
2016-10-10T09:15:52.725Z,17.86
2016-10-10T09:17:05.198Z,17.83
2016-10-10T09:18:18.241Z,17.86
2016-10-10T09:19:30.646Z,17.9
2016-10-10T09:20:43.883Z,17.87
2016-10-10T09:21:56.331Z,17.86
2016-10-10T09:23:09.779Z,17.92
2016-10-10T09:24:22.698Z,17.84
2016-10-10T09:25:36.205Z,17.83
2016-10-10T09:26:49.178Z,17.88
2016-10-10T09:28:02.536Z,17.87
2016-10-10T09:29:15.530Z,17.84
2016-10-10T09:30:29.028Z,17.9
2016-10-10T09:31:41.455Z,18.01
2016-10-10T09:32:54.955Z,18.11
2016-10-10T09:34:08.359Z,18.19
2016-10-10T09:35:21.307Z,18.2
2016-10-10T09:36:33.753Z,18.32
2016-10-10T09:37:47.206Z,18.44
2016-10-10T09:39:00.876Z,18.45
2016-10-10T09:40:14.822Z,18.5
2016-10-10T09:41:28.308Z,18.6
2016-10-10T09:42:42.240Z,18.65
2016-10-10T09:43:57.965Z,18.74
2016-10-10T09:45:10.979Z,18.68
2016-10-10T09:46:23.428Z,18.72
2016-10-10T09:47:36.387Z,18.74
2016-10-10T09:48:49.297Z,18.76
2016-10-10T09:50:02.355Z,18.74
2016-10-10T09:51:15.768Z,18.79
2016-10-10T09:52:29.192Z,18.84
2016-10-10T09:53:42.636Z,18.87
2016-10-10T09:54:55.539Z,18.82
2016-10-10T09:56:09.023Z,18.93
2016-10-10T09:57:21.517Z,18.89
2016-10-10T09:58:34.996Z,19
2016-10-10T09:59:47.958Z,18.97
2016-10-10T10:01:01.037Z,19.06
2016-10-10T10:02:14.022Z,18.96
2016-10-10T10:03:26.469Z,19.09
2016-10-10T10:04:39.456Z,19.16
2016-10-10T10:05:51.896Z,19.28
2016-10-10T10:07:03.787Z,19.23
2016-10-10T10:08:16.183Z,19.34
2016-10-10T10:09:29.684Z,19.43
2016-10-10T10:10:42.072Z,19.45
2016-10-10T10:11:55.126Z,19.47
2016-10-10T10:13:08.596Z,19.5
2016-10-10T10:14:21.024Z,19.53
2016-10-10T10:15:33.418Z,19.52
2016-10-10T10:16:45.303Z,19.47
2016-10-10T10:17:56.730Z,19.61
2016-10-10T10:19:09.670Z,19.55
2016-10-10T10:20:22.629Z,19.6
2016-10-10T10:21:35.594Z,19.61
2016-10-10T10:22:49.202Z,19.7
2016-10-10T10:24:01.668Z,19.78
2016-10-10T10:25:14.659Z,19.78
2016-10-10T10:26:27.542Z,19.98
2016-10-10T10:27:41.050Z,20.1
2016-10-10T10:28:53.510Z,20.2
2016-10-10T10:30:06.989Z,20.3
2016-10-10T10:31:19.924Z,20.27
2016-10-10T10:32:32.867Z,20.46
2016-10-10T10:33:46.567Z,20.49
2016-10-10T10:34:59.577Z,20.44
2016-10-10T10:36:12.033Z,20.44
2016-10-10T10:37:24.980Z,20.46
2016-10-10T10:38:37.397Z,20.49
2016-10-10T10:39:50.370Z,20.35
2016-10-10T10:41:02.755Z,20.37
2016-10-10T10:42:16.217Z,20.38
2016-10-10T10:43:28.658Z,20.27
2016-10-10T10:44:42.270Z,20.23
2016-10-10T10:45:54.730Z,20.3
2016-10-10T10:47:07.717Z,20.12
2016-10-10T10:48:20.625Z,20.11
2016-10-10T10:49:33.873Z,20.11
2016-10-10T10:50:46.357Z,20.16
2016-10-10T10:51:59.314Z,20.18
2016-10-10T10:53:12.333Z,20.19
2016-10-10T10:54:25.419Z,20.15
2016-10-10T10:55:37.877Z,20.18
2016-10-10T10:56:51.338Z,20.18
2016-10-10T10:58:04.303Z,20.18
2016-10-10T10:59:17.819Z,20.27
2016-10-10T11:00:31.476Z,20.34
2016-10-10T11:01:44.465Z,20.48
2016-10-10T11:02:57.419Z,20.61
2016-10-10T11:04:09.851Z,20.57
2016-10-10T11:05:22.771Z,20.71
2016-10-10T11:06:35.723Z,20.58
2016-10-10T11:07:48.130Z,20.6
2016-10-10T11:09:01.622Z,20.64
2016-10-10T11:10:15.133Z,20.6
2016-10-10T11:11:27.754Z,20.6
2016-10-10T11:12:40.158Z,20.61
2016-10-10T11:13:53.153Z,20.68
2016-10-10T11:15:06.680Z,20.68
2016-10-10T11:16:19.601Z,20.68
2016-10-10T11:17:33.339Z,20.68
2016-10-10T11:18:46.833Z,20.64
2016-10-10T11:19:59.258Z,20.66
2016-10-10T11:21:11.197Z,20.66
2016-10-10T11:22:24.289Z,20.78
2016-10-10T11:23:37.791Z,20.86
2016-10-10T11:24:50.739Z,20.98
2016-10-10T11:26:04.183Z,20.96
2016-10-10T11:27:16.632Z,21.01
2016-10-10T11:28:30.054Z,21.03
2016-10-10T11:29:43.533Z,21.04
2016-10-10T11:30:56.960Z,20.96
2016-10-10T11:32:10.413Z,21.04
2016-10-10T11:33:24.089Z,21.15
2016-10-10T11:34:37.589Z,21.3
2016-10-10T11:35:50.757Z,21.37
2016-10-10T11:37:04.273Z,21.41
2016-10-10T11:38:17.251Z,21.61
2016-10-10T11:39:30.348Z,21.71
2016-10-10T11:40:43.791Z,21.83
2016-10-10T11:41:56.222Z,21.86
2016-10-10T11:43:09.724Z,21.86
2016-10-10T11:44:23.410Z,21.7
2016-10-10T11:45:36.893Z,21.7
2016-10-10T11:46:49.835Z,21.66
2016-10-10T11:48:02.783Z,21.51
2016-10-10T11:49:15.322Z,21.49
2016-10-10T11:50:28.854Z,21.34
2016-10-10T11:51:41.277Z,21.45
2016-10-10T11:52:53.155Z,21.33
2016-10-10T11:54:06.682Z,21.23
2016-10-10T11:55:20.514Z,21.27
2016-10-10T11:56:32.466Z,21.11
2016-10-10T11:57:45.943Z,21.11
2016-10-10T11:58:58.367Z,20.98
2016-10-10T12:00:10.509Z,20.93
2016-10-10T12:01:23.429Z,20.94
2016-10-10T12:02:36.922Z,20.85
2016-10-10T12:03:49.839Z,20.85
2016-10-10T12:05:02.318Z,20.85
2016-10-10T12:06:14.237Z,20.85
2016-10-10T12:07:26.756Z,20.88
2016-10-10T12:08:40.259Z,20.98
2016-10-10T12:09:53.703Z,21.09
2016-10-10T12:11:06.881Z,21.27
2016-10-10T12:12:19.310Z,21.38
2016-10-10T12:13:32.736Z,21.48
2016-10-10T12:14:46.005Z,21.67
2016-10-10T12:15:59.852Z,21.82
2016-10-10T12:17:12.960Z,22
2016-10-10T12:18:25.393Z,22.24
2016-10-10T12:19:38.332Z,22.46
2016-10-10T12:20:51.806Z,22.52
2016-10-10T12:22:04.334Z,22.63
2016-10-10T12:23:17.812Z,22.76
2016-10-10T12:24:30.807Z,22.86
2016-10-10T12:25:44.363Z,23.03
2016-10-10T12:26:57.874Z,23.19
2016-10-10T12:28:10.876Z,23.42
2016-10-10T12:29:23.941Z,23.57
2016-10-10T12:30:37.476Z,23.71
2016-10-10T12:31:50.436Z,23.82
2016-10-10T12:33:03.508Z,23.96
2016-10-10T12:34:16.522Z,24.09
2016-10-10T12:35:29.435Z,24.29
2016-10-10T12:36:42.643Z,24.36
2016-10-10T12:37:55.778Z,24.74
2016-10-10T12:39:08.352Z,24.9
2016-10-10T12:40:21.479Z,25.15
2016-10-10T12:41:34.698Z,25.37
2016-10-10T12:42:47.183Z,25.52
2016-10-10T12:44:00.702Z,25.79
2016-10-10T12:45:13.282Z,26.01
2016-10-10T12:46:26.340Z,26.22
2016-10-10T12:47:38.841Z,26.31
2016-10-10T12:48:51.765Z,26.53
2016-10-10T12:50:05.617Z,26.78
2016-10-10T12:51:19.394Z,26.75
2016-10-10T12:52:32.899Z,26.82
2016-10-10T12:53:46.469Z,26.86
2016-10-10T12:54:59.435Z,26.94
2016-10-10T12:56:11.972Z,27.01
2016-10-10T12:57:25.358Z,27.18
2016-10-10T12:58:38.336Z,27.23
2016-10-10T12:59:51.831Z,27.42
2016-10-10T13:01:04.826Z,27.64
2016-10-10T13:02:17.867Z,27.93
2016-10-10T13:03:30.765Z,27.96
2016-10-10T13:04:43.826Z,27.99
2016-10-10T13:05:57.493Z,27.94
2016-10-10T13:07:10.979Z,28.14
2016-10-10T13:08:23.981Z,28.2
2016-10-10T13:09:36.652Z,28.24
2016-10-10T13:10:48.641Z,28.16
2016-10-10T13:12:00.598Z,28.23
2016-10-10T13:13:13.577Z,28.03
2016-10-10T13:14:26.082Z,27.86
2016-10-10T13:15:39.041Z,27.72
2016-10-10T13:16:52.595Z,27.76
2016-10-10T13:18:06.204Z,27.96
2016-10-10T13:19:19.719Z,28.09
2016-10-10T13:20:33.559Z,28.17
2016-10-10T13:21:47.038Z,28.43
2016-10-10T13:23:00.066Z,28.53
2016-10-10T13:24:13.623Z,28.64
2016-10-10T13:25:26.641Z,28.75
2016-10-10T13:26:38.705Z,28.73
2016-10-10T13:27:52.252Z,28.79
2016-10-10T13:29:04.798Z,28.9
2016-10-10T13:30:18.419Z,28.98
2016-10-10T13:31:29.897Z,29.06
2016-10-10T13:32:43.178Z,28.94
2016-10-10T13:33:55.611Z,28.72
2016-10-10T13:35:07.561Z,28.54
2016-10-10T13:36:20.002Z,28.35
2016-10-10T13:37:34.776Z,28.24
2016-10-10T13:38:54.855Z,28.24
2016-10-10T13:40:15.892Z,28.23
2016-10-10T13:41:38.471Z,28.33
2016-10-10T13:43:01.527Z,28.28
2016-10-10T13:44:19.630Z,28.27
2016-10-10T13:45:32.665Z,28.33
2016-10-10T13:46:46.125Z,28.39
2016-10-10T13:47:59.072Z,28.36
2016-10-10T13:49:11.542Z,28.31
2016-10-10T13:50:24.475Z,28.23
2016-10-10T13:51:36.829Z,28.23
2016-10-10T13:52:49.285Z,28.24
2016-10-10T13:54:01.709Z,28.18
2016-10-10T13:55:14.307Z,28.18
2016-10-10T13:56:27.852Z,28.28
2016-10-10T13:57:41.025Z,28.21
2016-10-10T13:58:53.934Z,28.24
2016-10-10T14:00:06.981Z,28.43
2016-10-10T14:01:19.982Z,28.61
2016-10-10T14:02:32.929Z,28.86
2016-10-10T14:03:44.282Z,28.95
2016-10-10T14:04:57.348Z,29.11
2016-10-10T14:06:10.300Z,29.13
2016-10-10T14:07:23.288Z,29.14
2016-10-10T14:08:35.700Z,29.13
2016-10-10T14:09:47.091Z,29.11
2016-10-10T14:11:00.595Z,29.17
2016-10-10T14:12:13.004Z,29.11
2016-10-10T14:13:26.026Z,28.98
2016-10-10T14:14:38.519Z,29.03
2016-10-10T14:15:50.478Z,28.9
2016-10-10T14:17:03.651Z,28.73
2016-10-10T14:18:16.087Z,28.72
2016-10-10T14:19:29.599Z,28.7
2016-10-10T14:20:42.080Z,28.67
2016-10-10T14:21:54.475Z,28.57
2016-10-10T14:23:06.362Z,28.7
2016-10-10T14:24:19.687Z,28.64
2016-10-10T14:25:31.539Z,28.72
2016-10-10T14:26:43.507Z,28.64
2016-10-10T14:27:57.025Z,28.94
2016-10-10T14:29:09.957Z,29.23
2016-10-10T14:30:23.527Z,29.42
2016-10-10T14:31:37.009Z,29.81
2016-10-10T14:32:49.424Z,29.79
2016-10-10T14:34:02.928Z,29.82
2016-10-10T14:35:16.377Z,29.82
2016-10-10T14:36:29.368Z,29.95
2016-10-10T14:37:42.868Z,30.03
2016-10-10T14:38:55.847Z,29.92
2016-10-10T14:40:09.417Z,29.85
2016-10-10T14:41:22.483Z,29.72
2016-10-10T14:42:35.958Z,29.69
2016-10-10T14:43:48.388Z,29.79
2016-10-10T14:45:01.272Z,29.73
2016-10-10T14:46:14.723Z,29.77
2016-10-10T14:47:27.701Z,29.91
2016-10-10T14:48:40.639Z,30.07
2016-10-10T14:49:54.137Z,30.09
2016-10-10T14:51:07.256Z,30.02
2016-10-10T14:52:20.226Z,30.11
2016-10-10T14:53:33.288Z,30.21
2016-10-10T14:54:46.253Z,30.25
2016-10-10T14:55:59.894Z,30.32
2016-10-10T14:57:13.390Z,30.25
2016-10-10T14:58:26.333Z,30.52
2016-10-10T14:59:38.827Z,30.86
2016-10-10T15:00:51.512Z,31.13
2016-10-10T15:02:04.547Z,31.19
2016-10-10T15:03:17.000Z,31.26
2016-10-10T15:04:29.402Z,31.3
2016-10-10T15:05:42.401Z,31.25
2016-10-10T15:06:54.242Z,31.45
2016-10-10T15:08:07.207Z,31.8
2016-10-10T15:09:20.693Z,31.86
2016-10-10T15:10:33.606Z,31.8
2016-10-10T15:11:46.614Z,31.95
2016-10-10T15:13:00.200Z,31.9
2016-10-10T15:14:13.669Z,32.08
2016-10-10T15:15:26.144Z,32.27
2016-10-10T15:16:39.081Z,32.75
2016-10-10T15:17:52.660Z,33.05
2016-10-10T15:19:06.167Z,33.18
2016-10-10T15:20:19.103Z,33.26
2016-10-10T15:21:32.360Z,33.24
2016-10-10T15:22:45.386Z,33.26
2016-10-10T15:23:58.918Z,33.43
2016-10-10T15:25:12.543Z,34.26
2016-10-10T15:26:26.018Z,35.27
2016-10-10T15:27:39.054Z,35.95
2016-10-10T15:28:52.519Z,36.02
2016-10-10T15:30:05.489Z,36.22
2016-10-10T15:31:18.457Z,36.34
2016-10-10T15:32:30.893Z,36.08
2016-10-10T15:33:44.021Z,35.95
2016-10-10T15:34:56.438Z,36.24
2016-10-10T15:36:08.881Z,36.86
2016-10-10T15:37:21.843Z,37.42
2016-10-10T15:38:34.382Z,37.45
2016-10-10T15:39:47.842Z,37.61
2016-10-10T15:41:01.377Z,38.21
2016-10-10T15:42:13.774Z,38.85
2016-10-10T15:43:26.732Z,39.38